sensor_id;sensor_type;location;lat;lon;timestamp;P1;durP1;ratioP1;P2;durP2;ratioP2
73900;SDS011;62235;52.160;7.526;2023-07-09T00:00:49;7.30;;;4.15;;
73900;SDS011;62235;52.160;7.526;2023-07-09T00:03:15;6.63;;;4.28;;
73900;SDS011;62235;52.160;7.526;2023-07-09T00:05:41;5.57;;;4.00;;
73900;SDS011;62235;52.160;7.526;2023-07-09T00:08:12;6.20;;;4.35;;
73900;SDS011;62235;52.160;7.526;2023-07-09T00:13:12;9.73;;;4.47;;
73900;SDS011;62235;52.160;7.526;2023-07-09T00:15:37;6.67;;;4.57;;
73900;SDS011;62235;52.160;7.526;2023-07-09T00:18:03;9.00;;;4.30;;
73900;SDS011;62235;52.160;7.526;2023-07-09T00:20:28;9.23;;;4.60;;
73900;SDS011;62235;52.160;7.526;2023-07-09T00:22:53;6.13;;;4.37;;
73900;SDS011;62235;52.160;7.526;2023-07-09T00:25:19;8.40;;;4.75;;
73900;SDS011;62235;52.160;7.526;2023-07-09T00:27:45;7.38;;;4.80;;
73900;SDS011;62235;52.160;7.526;2023-07-09T00:32:45;8.50;;;4.50;;
73900;SDS011;62235;52.160;7.526;2023-07-09T00:35:11;6.40;;;4.75;;
73900;SDS011;62235;52.160;7.526;2023-07-09T00:37:40;7.78;;;4.55;;
73900;SDS011;62235;52.160;7.526;2023-07-09T00:40:16;8.95;;;4.85;;
73900;SDS011;62235;52.160;7.526;2023-07-09T00:42:48;10.50;;;4.38;;
73900;SDS011;62235;52.160;7.526;2023-07-09T00:45:24;8.13;;;4.70;;
73900;SDS011;62235;52.160;7.526;2023-07-09T00:50:37;9.02;;;4.60;;
73900;SDS011;62235;52.160;7.526;2023-07-09T00:53:19;8.27;;;4.88;;
73900;SDS011;62235;52.160;7.526;2023-07-09T00:55:50;8.02;;;4.35;;
73900;SDS011;62235;52.160;7.526;2023-07-09T00:58:21;7.38;;;4.55;;
73900;SDS011;62235;52.160;7.526;2023-07-09T01:00:53;7.28;;;4.65;;
73900;SDS011;62235;52.160;7.526;2023-07-09T01:03:22;10.15;;;4.60;;
73900;SDS011;62235;52.160;7.526;2023-07-09T01:05:54;7.32;;;4.63;;
73900;SDS011;62235;52.160;7.526;2023-07-09T01:08:20;5.85;;;4.20;;
73900;SDS011;62235;52.160;7.526;2023-07-09T01:10:46;8.02;;;4.85;;
73900;SDS011;62235;52.160;7.526;2023-07-09T01:13:11;9.77;;;5.13;;
73900;SDS011;62235;52.160;7.526;2023-07-09T01:15:37;8.75;;;5.30;;
73900;SDS011;62235;52.160;7.526;2023-07-09T01:18:05;7.03;;;4.60;;
73900;SDS011;62235;52.160;7.526;2023-07-09T01:20:33;7.07;;;5.10;;
73900;SDS011;62235;52.160;7.526;2023-07-09T01:22:59;8.55;;;5.05;;
73900;SDS011;62235;52.160;7.526;2023-07-09T01:25:26;7.03;;;4.72;;
73900;SDS011;62235;52.160;7.526;2023-07-09T01:27:53;10.10;;;5.03;;
73900;SDS011;62235;52.160;7.526;2023-07-09T01:30:23;7.97;;;5.18;;
73900;SDS011;62235;52.160;7.526;2023-07-09T01:33:03;10.93;;;5.50;;
73900;SDS011;62235;52.160;7.526;2023-07-09T01:35:29;8.95;;;5.10;;
73900;SDS011;62235;52.160;7.526;2023-07-09T01:37:56;9.77;;;5.35;;
73900;SDS011;62235;52.160;7.526;2023-07-09T01:40:22;8.75;;;5.15;;
73900;SDS011;62235;52.160;7.526;2023-07-09T01:42:49;7.60;;;4.70;;
73900;SDS011;62235;52.160;7.526;2023-07-09T01:45:16;8.80;;;5.30;;
73900;SDS011;62235;52.160;7.526;2023-07-09T01:47:42;9.23;;;5.63;;
73900;SDS011;62235;52.160;7.526;2023-07-09T01:50:09;7.20;;;4.95;;
73900;SDS011;62235;52.160;7.526;2023-07-09T01:52:36;5.93;;;4.45;;
73900;SDS011;62235;52.160;7.526;2023-07-09T01:55:02;7.53;;;5.22;;
73900;SDS011;62235;52.160;7.526;2023-07-09T01:57:28;7.60;;;4.82;;
73900;SDS011;62235;52.160;7.526;2023-07-09T01:59:58;10.23;;;5.28;;
73900;SDS011;62235;52.160;7.526;2023-07-09T02:02:24;6.35;;;5.00;;
73900;SDS011;62235;52.160;7.526;2023-07-09T02:04:51;7.43;;;5.10;;
73900;SDS011;62235;52.160;7.526;2023-07-09T02:07:17;6.55;;;4.82;;
73900;SDS011;62235;52.160;7.526;2023-07-09T02:09:43;10.68;;;5.00;;
73900;SDS011;62235;52.160;7.526;2023-07-09T02:12:09;6.57;;;4.78;;
73900;SDS011;62235;52.160;7.526;2023-07-09T02:14:36;8.68;;;5.72;;
73900;SDS011;62235;52.160;7.526;2023-07-09T02:17:01;7.15;;;5.03;;
73900;SDS011;62235;52.160;7.526;2023-07-09T02:19:28;9.30;;;5.07;;
73900;SDS011;62235;52.160;7.526;2023-07-09T02:21:53;7.57;;;5.10;;
73900;SDS011;62235;52.160;7.526;2023-07-09T02:24:19;8.90;;;5.30;;
73900;SDS011;62235;52.160;7.526;2023-07-09T02:26:44;9.20;;;5.00;;
73900;SDS011;62235;52.160;7.526;2023-07-09T02:29:10;8.88;;;5.35;;
73900;SDS011;62235;52.160;7.526;2023-07-09T02:31:35;9.45;;;5.35;;
73900;SDS011;62235;52.160;7.526;2023-07-09T02:34:00;10.13;;;5.32;;
73900;SDS011;62235;52.160;7.526;2023-07-09T02:36:27;8.98;;;5.40;;
73900;SDS011;62235;52.160;7.526;2023-07-09T02:38:52;8.50;;;5.07;;
73900;SDS011;62235;52.160;7.526;2023-07-09T02:41:18;7.83;;;5.10;;
73900;SDS011;62235;52.160;7.526;2023-07-09T02:43:43;7.77;;;5.30;;
73900;SDS011;62235;52.160;7.526;2023-07-09T02:46:08;8.17;;;5.40;;
73900;SDS011;62235;52.160;7.526;2023-07-09T02:48:33;8.10;;;5.20;;
73900;SDS011;62235;52.160;7.526;2023-07-09T02:50:59;7.20;;;5.13;;
73900;SDS011;62235;52.160;7.526;2023-07-09T02:53:24;7.63;;;5.20;;
73900;SDS011;62235;52.160;7.526;2023-07-09T02:55:50;7.25;;;5.15;;
73900;SDS011;62235;52.160;7.526;2023-07-09T02:58:15;14.10;;;6.03;;
73900;SDS011;62235;52.160;7.526;2023-07-09T03:00:41;9.68;;;5.55;;
73900;SDS011;62235;52.160;7.526;2023-07-09T03:03:06;12.60;;;5.43;;
73900;SDS011;62235;52.160;7.526;2023-07-09T03:05:32;8.70;;;5.20;;
73900;SDS011;62235;52.160;7.526;2023-07-09T03:07:58;7.38;;;5.15;;
73900;SDS011;62235;52.160;7.526;2023-07-09T03:10:23;11.10;;;5.73;;
73900;SDS011;62235;52.160;7.526;2023-07-09T03:12:49;10.43;;;5.70;;
73900;SDS011;62235;52.160;7.526;2023-07-09T03:15:14;10.50;;;6.00;;
73900;SDS011;62235;52.160;7.526;2023-07-09T03:17:39;8.45;;;5.68;;
73900;SDS011;62235;52.160;7.526;2023-07-09T03:20:05;8.67;;;5.30;;
73900;SDS011;62235;52.160;7.526;2023-07-09T03:22:32;8.10;;;5.40;;
73900;SDS011;62235;52.160;7.526;2023-07-09T03:24:58;8.17;;;5.27;;
73900;SDS011;62235;52.160;7.526;2023-07-09T03:27:23;10.53;;;5.63;;
73900;SDS011;62235;52.160;7.526;2023-07-09T03:29:48;8.33;;;5.00;;
73900;SDS011;62235;52.160;7.526;2023-07-09T03:32:13;7.93;;;5.20;;
73900;SDS011;62235;52.160;7.526;2023-07-09T03:34:39;9.33;;;5.90;;
73900;SDS011;62235;52.160;7.526;2023-07-09T03:37:04;8.35;;;5.10;;
73900;SDS011;62235;52.160;7.526;2023-07-09T03:39:29;9.95;;;5.47;;
73900;SDS011;62235;52.160;7.526;2023-07-09T03:41:55;7.95;;;5.13;;
73900;SDS011;62235;52.160;7.526;2023-07-09T03:44:20;9.40;;;5.97;;
73900;SDS011;62235;52.160;7.526;2023-07-09T03:46:45;9.37;;;5.90;;
73900;SDS011;62235;52.160;7.526;2023-07-09T03:49:11;8.47;;;5.60;;
73900;SDS011;62235;52.160;7.526;2023-07-09T03:51:36;10.75;;;5.40;;
73900;SDS011;62235;52.160;7.526;2023-07-09T03:54:01;7.80;;;5.13;;
73900;SDS011;62235;52.160;7.526;2023-07-09T03:56:27;9.68;;;5.85;;
73900;SDS011;62235;52.160;7.526;2023-07-09T03:58:52;7.77;;;5.20;;
73900;SDS011;62235;52.160;7.526;2023-07-09T04:01:17;8.87;;;5.57;;
73900;SDS011;62235;52.160;7.526;2023-07-09T04:03:43;7.73;;;5.13;;
73900;SDS011;62235;52.160;7.526;2023-07-09T04:06:08;9.55;;;5.80;;
73900;SDS011;62235;52.160;7.526;2023-07-09T04:08:33;9.20;;;5.70;;
73900;SDS011;62235;52.160;7.526;2023-07-09T04:10:59;11.20;;;5.87;;
73900;SDS011;62235;52.160;7.526;2023-07-09T04:13:25;7.95;;;5.82;;
73900;SDS011;62235;52.160;7.526;2023-07-09T04:15:52;9.73;;;5.50;;
73900;SDS011;62235;52.160;7.526;2023-07-09T04:18:17;8.23;;;5.90;;
73900;SDS011;62235;52.160;7.526;2023-07-09T04:20:43;8.67;;;5.80;;
73900;SDS011;62235;52.160;7.526;2023-07-09T04:23:08;9.60;;;6.18;;
73900;SDS011;62235;52.160;7.526;2023-07-09T04:25:34;8.60;;;5.70;;
73900;SDS011;62235;52.160;7.526;2023-07-09T04:27:59;9.47;;;5.73;;
73900;SDS011;62235;52.160;7.526;2023-07-09T04:30:25;10.17;;;6.10;;
73900;SDS011;62235;52.160;7.526;2023-07-09T04:32:50;14.15;;;7.05;;
73900;SDS011;62235;52.160;7.526;2023-07-09T04:35:15;9.07;;;5.60;;
73900;SDS011;62235;52.160;7.526;2023-07-09T04:37:41;9.25;;;6.03;;
73900;SDS011;62235;52.160;7.526;2023-07-09T04:40:08;11.13;;;6.35;;
73900;SDS011;62235;52.160;7.526;2023-07-09T04:42:35;11.20;;;6.35;;
73900;SDS011;62235;52.160;7.526;2023-07-09T04:45:01;9.88;;;6.60;;
73900;SDS011;62235;52.160;7.526;2023-07-09T04:47:26;10.13;;;6.20;;
73900;SDS011;62235;52.160;7.526;2023-07-09T04:49:52;9.80;;;6.50;;
73900;SDS011;62235;52.160;7.526;2023-07-09T04:52:17;10.13;;;7.03;;
73900;SDS011;62235;52.160;7.526;2023-07-09T04:54:42;9.03;;;6.27;;
73900;SDS011;62235;52.160;7.526;2023-07-09T04:57:09;10.95;;;6.70;;
73900;SDS011;62235;52.160;7.526;2023-07-09T04:59:34;10.88;;;6.13;;
73900;SDS011;62235;52.160;7.526;2023-07-09T05:02:00;8.53;;;5.93;;
73900;SDS011;62235;52.160;7.526;2023-07-09T05:04:25;12.40;;;6.03;;
73900;SDS011;62235;52.160;7.526;2023-07-09T05:06:51;12.73;;;5.88;;
73900;SDS011;62235;52.160;7.526;2023-07-09T05:09:16;14.03;;;6.70;;
73900;SDS011;62235;52.160;7.526;2023-07-09T05:11:41;9.33;;;6.27;;
73900;SDS011;62235;52.160;7.526;2023-07-09T05:14:06;12.27;;;6.50;;
73900;SDS011;62235;52.160;7.526;2023-07-09T05:16:32;8.87;;;6.03;;
73900;SDS011;62235;52.160;7.526;2023-07-09T05:18:57;8.95;;;6.45;;
73900;SDS011;62235;52.160;7.526;2023-07-09T05:21:22;11.27;;;6.75;;
73900;SDS011;62235;52.160;7.526;2023-07-09T05:23:48;8.00;;;5.90;;
73900;SDS011;62235;52.160;7.526;2023-07-09T05:26:13;10.33;;;6.03;;
73900;SDS011;62235;52.160;7.526;2023-07-09T05:28:38;8.53;;;6.20;;
73900;SDS011;62235;52.160;7.526;2023-07-09T05:31:04;11.60;;;6.25;;
73900;SDS011;62235;52.160;7.526;2023-07-09T05:33:30;9.02;;;5.90;;
73900;SDS011;62235;52.160;7.526;2023-07-09T05:35:56;9.35;;;6.13;;
73900;SDS011;62235;52.160;7.526;2023-07-09T05:38:21;9.30;;;6.00;;
73900;SDS011;62235;52.160;7.526;2023-07-09T05:40:46;10.15;;;5.93;;
73900;SDS011;62235;52.160;7.526;2023-07-09T05:43:12;10.10;;;5.95;;
73900;SDS011;62235;52.160;7.526;2023-07-09T05:45:40;9.07;;;5.93;;
73900;SDS011;62235;52.160;7.526;2023-07-09T05:48:06;9.05;;;6.20;;
73900;SDS011;62235;52.160;7.526;2023-07-09T05:50:32;10.70;;;6.18;;
73900;SDS011;62235;52.160;7.526;2023-07-09T05:52:59;10.45;;;5.97;;
73900;SDS011;62235;52.160;7.526;2023-07-09T05:55:24;10.07;;;5.68;;
73900;SDS011;62235;52.160;7.526;2023-07-09T05:57:50;8.18;;;5.70;;
73900;SDS011;62235;52.160;7.526;2023-07-09T06:00:15;9.68;;;5.70;;
73900;SDS011;62235;52.160;7.526;2023-07-09T06:02:41;9.43;;;5.55;;
73900;SDS011;62235;52.160;7.526;2023-07-09T06:05:06;9.23;;;5.93;;
73900;SDS011;62235;52.160;7.526;2023-07-09T06:07:34;8.63;;;5.40;;
73900;SDS011;62235;52.160;7.526;2023-07-09T06:09:59;9.07;;;6.00;;
73900;SDS011;62235;52.160;7.526;2023-07-09T06:12:25;9.83;;;5.60;;
73900;SDS011;62235;52.160;7.526;2023-07-09T06:14:50;8.30;;;5.20;;
73900;SDS011;62235;52.160;7.526;2023-07-09T06:17:16;10.50;;;5.57;;
73900;SDS011;62235;52.160;7.526;2023-07-09T06:19:41;7.93;;;5.65;;
73900;SDS011;62235;52.160;7.526;2023-07-09T06:22:06;11.43;;;5.40;;
73900;SDS011;62235;52.160;7.526;2023-07-09T06:24:32;9.73;;;5.83;;
73900;SDS011;62235;52.160;7.526;2023-07-09T06:26:57;7.80;;;5.47;;
73900;SDS011;62235;52.160;7.526;2023-07-09T06:29:24;7.93;;;5.55;;
73900;SDS011;62235;52.160;7.526;2023-07-09T06:31:49;9.48;;;5.32;;
73900;SDS011;62235;52.160;7.526;2023-07-09T06:34:14;7.63;;;5.10;;
73900;SDS011;62235;52.160;7.526;2023-07-09T06:36:40;7.80;;;4.97;;
73900;SDS011;62235;52.160;7.526;2023-07-09T06:39:05;8.88;;;5.32;;
73900;SDS011;62235;52.160;7.526;2023-07-09T06:41:31;8.05;;;5.10;;
73900;SDS011;62235;52.160;7.526;2023-07-09T06:43:57;9.38;;;5.35;;
73900;SDS011;62235;52.160;7.526;2023-07-09T06:46:23;11.38;;;5.43;;
73900;SDS011;62235;52.160;7.526;2023-07-09T06:48:48;7.68;;;5.13;;
73900;SDS011;62235;52.160;7.526;2023-07-09T06:51:13;7.33;;;4.70;;
73900;SDS011;62235;52.160;7.526;2023-07-09T06:53:39;8.13;;;5.53;;
73900;SDS011;62235;52.160;7.526;2023-07-09T06:56:05;10.68;;;5.22;;
73900;SDS011;62235;52.160;7.526;2023-07-09T06:58:31;8.75;;;5.45;;
73900;SDS011;62235;52.160;7.526;2023-07-09T07:00:57;7.75;;;5.22;;
73900;SDS011;62235;52.160;7.526;2023-07-09T07:03:23;8.60;;;5.03;;
73900;SDS011;62235;52.160;7.526;2023-07-09T07:05:49;8.77;;;5.00;;
73900;SDS011;62235;52.160;7.526;2023-07-09T07:08:16;9.27;;;4.50;;
73900;SDS011;62235;52.160;7.526;2023-07-09T07:10:43;7.65;;;4.65;;
73900;SDS011;62235;52.160;7.526;2023-07-09T07:13:12;8.80;;;4.82;;
73900;SDS011;62235;52.160;7.526;2023-07-09T07:15:38;7.07;;;5.10;;
73900;SDS011;62235;52.160;7.526;2023-07-09T07:18:03;7.93;;;5.00;;
73900;SDS011;62235;52.160;7.526;2023-07-09T07:20:29;8.25;;;5.03;;
73900;SDS011;62235;52.160;7.526;2023-07-09T07:22:55;9.52;;;4.88;;
73900;SDS011;62235;52.160;7.526;2023-07-09T07:25:21;8.23;;;5.18;;
73900;SDS011;62235;52.160;7.526;2023-07-09T07:27:46;6.80;;;4.90;;
73900;SDS011;62235;52.160;7.526;2023-07-09T07:30:12;6.73;;;4.30;;
73900;SDS011;62235;52.160;7.526;2023-07-09T07:32:38;9.00;;;5.15;;
73900;SDS011;62235;52.160;7.526;2023-07-09T07:35:07;8.63;;;5.05;;
73900;SDS011;62235;52.160;7.526;2023-07-09T07:37:32;8.88;;;4.85;;
73900;SDS011;62235;52.160;7.526;2023-07-09T07:39:58;7.10;;;4.70;;
73900;SDS011;62235;52.160;7.526;2023-07-09T07:42:23;7.38;;;4.97;;
73900;SDS011;62235;52.160;7.526;2023-07-09T07:44:49;7.22;;;4.63;;
73900;SDS011;62235;52.160;7.526;2023-07-09T07:47:14;7.75;;;4.60;;
73900;SDS011;62235;52.160;7.526;2023-07-09T07:49:40;10.52;;;5.10;;
73900;SDS011;62235;52.160;7.526;2023-07-09T07:52:05;8.98;;;4.53;;
73900;SDS011;62235;52.160;7.526;2023-07-09T07:54:31;10.98;;;5.10;;
73900;SDS011;62235;52.160;7.526;2023-07-09T07:56:57;7.72;;;4.38;;
73900;SDS011;62235;52.160;7.526;2023-07-09T07:59:23;7.72;;;4.65;;
73900;SDS011;62235;52.160;7.526;2023-07-09T08:01:48;8.20;;;4.78;;
73900;SDS011;62235;52.160;7.526;2023-07-09T08:04:14;8.95;;;4.57;;
73900;SDS011;62235;52.160;7.526;2023-07-09T08:06:40;7.90;;;4.47;;
73900;SDS011;62235;52.160;7.526;2023-07-09T08:09:05;7.45;;;4.82;;
73900;SDS011;62235;52.160;7.526;2023-07-09T08:11:30;8.90;;;4.90;;
73900;SDS011;62235;52.160;7.526;2023-07-09T08:13:57;8.00;;;4.47;;
73900;SDS011;62235;52.160;7.526;2023-07-09T08:16:22;7.32;;;4.45;;
73900;SDS011;62235;52.160;7.526;2023-07-09T08:18:48;8.68;;;4.47;;
73900;SDS011;62235;52.160;7.526;2023-07-09T08:21:13;9.68;;;4.25;;
73900;SDS011;62235;52.160;7.526;2023-07-09T08:23:39;9.30;;;4.28;;
73900;SDS011;62235;52.160;7.526;2023-07-09T08:26:05;7.32;;;5.05;;
73900;SDS011;62235;52.160;7.526;2023-07-09T08:28:31;7.10;;;4.65;;
73900;SDS011;62235;52.160;7.526;2023-07-09T08:30:56;8.93;;;4.13;;
73900;SDS011;62235;52.160;7.526;2023-07-09T08:33:22;6.70;;;4.72;;
73900;SDS011;62235;52.160;7.526;2023-07-09T08:35:49;8.20;;;4.10;;
73900;SDS011;62235;52.160;7.526;2023-07-09T08:38:14;7.78;;;4.75;;
73900;SDS011;62235;52.160;7.526;2023-07-09T08:40:40;7.50;;;4.20;;
73900;SDS011;62235;52.160;7.526;2023-07-09T08:43:32;7.53;;;4.57;;
73900;SDS011;62235;52.160;7.526;2023-07-09T08:48:57;8.40;;;4.50;;
73900;SDS011;62235;52.160;7.526;2023-07-09T08:51:28;9.27;;;4.20;;
73900;SDS011;62235;52.160;7.526;2023-07-09T08:54:08;7.32;;;4.10;;
73900;SDS011;62235;52.160;7.526;2023-07-09T08:56:36;8.38;;;4.78;;
73900;SDS011;62235;52.160;7.526;2023-07-09T08:59:02;7.35;;;4.55;;
73900;SDS011;62235;52.160;7.526;2023-07-09T09:01:29;9.32;;;4.68;;
73900;SDS011;62235;52.160;7.526;2023-07-09T09:04:00;6.70;;;4.45;;
73900;SDS011;62235;52.160;7.526;2023-07-09T09:06:29;9.75;;;4.78;;
73900;SDS011;62235;52.160;7.526;2023-07-09T09:09:03;7.22;;;4.88;;
73900;SDS011;62235;52.160;7.526;2023-07-09T09:11:46;7.65;;;4.68;;
73900;SDS011;62235;52.160;7.526;2023-07-09T09:17:00;10.35;;;5.13;;
73900;SDS011;62235;52.160;7.526;2023-07-09T09:19:33;9.38;;;4.97;;
73900;SDS011;62235;52.160;7.526;2023-07-09T09:22:07;5.70;;;4.10;;
73900;SDS011;62235;52.160;7.526;2023-07-09T09:27:17;6.70;;;4.97;;
73900;SDS011;62235;52.160;7.526;2023-07-09T09:29:43;7.10;;;4.20;;
73900;SDS011;62235;52.160;7.526;2023-07-09T09:32:27;7.30;;;4.25;;
73900;SDS011;62235;52.160;7.526;2023-07-09T09:34:54;5.65;;;4.32;;
73900;SDS011;62235;52.160;7.526;2023-07-09T09:37:37;7.95;;;4.70;;
73900;SDS011;62235;52.160;7.526;2023-07-09T09:40:03;9.27;;;4.25;;
73900;SDS011;62235;52.160;7.526;2023-07-09T09:42:28;8.35;;;3.80;;
73900;SDS011;62235;52.160;7.526;2023-07-09T09:44:54;9.60;;;4.50;;
73900;SDS011;62235;52.160;7.526;2023-07-09T09:47:25;8.05;;;4.82;;
73900;SDS011;62235;52.160;7.526;2023-07-09T09:49:51;8.38;;;4.53;;
73900;SDS011;62235;52.160;7.526;2023-07-09T09:52:18;7.05;;;4.03;;
73900;SDS011;62235;52.160;7.526;2023-07-09T09:54:48;7.10;;;4.28;;
73900;SDS011;62235;52.160;7.526;2023-07-09T09:57:18;7.80;;;4.30;;
73900;SDS011;62235;52.160;7.526;2023-07-09T09:59:45;7.60;;;4.70;;
73900;SDS011;62235;52.160;7.526;2023-07-09T10:02:22;7.90;;;4.10;;
73900;SDS011;62235;52.160;7.526;2023-07-09T10:04:49;7.13;;;4.50;;
73900;SDS011;62235;52.160;7.526;2023-07-09T10:07:27;8.07;;;3.97;;
73900;SDS011;62235;52.160;7.526;2023-07-09T10:09:56;7.28;;;4.30;;
73900;SDS011;62235;52.160;7.526;2023-07-09T10:17:38;6.25;;;3.40;;
73900;SDS011;62235;52.160;7.526;2023-07-09T10:25:58;7.47;;;4.00;;
73900;SDS011;62235;52.160;7.526;2023-07-09T10:34:17;8.10;;;3.80;;
73900;SDS011;62235;52.160;7.526;2023-07-09T10:39:33;5.88;;;3.50;;
73900;SDS011;62235;52.160;7.526;2023-07-09T10:42:01;7.00;;;3.65;;
73900;SDS011;62235;52.160;7.526;2023-07-09T10:44:37;6.75;;;3.28;;
73900;SDS011;62235;52.160;7.526;2023-07-09T10:47:07;6.20;;;3.10;;
73900;SDS011;62235;52.160;7.526;2023-07-09T10:49:37;4.60;;;3.20;;
73900;SDS011;62235;52.160;7.526;2023-07-09T10:52:05;5.43;;;3.70;;
73900;SDS011;62235;52.160;7.526;2023-07-09T10:55:08;8.23;;;3.83;;
73900;SDS011;62235;52.160;7.526;2023-07-09T10:57:30;6.25;;;3.70;;
73900;SDS011;62235;52.160;7.526;2023-07-09T11:00:05;5.65;;;3.00;;
73900;SDS011;62235;52.160;7.526;2023-07-09T11:02:33;5.78;;;3.13;;
73900;SDS011;62235;52.160;7.526;2023-07-09T11:05:04;6.80;;;4.28;;
73900;SDS011;62235;52.160;7.526;2023-07-09T11:07:33;6.70;;;3.42;;
73900;SDS011;62235;52.160;7.526;2023-07-09T11:10:03;5.55;;;3.38;;
73900;SDS011;62235;52.160;7.526;2023-07-09T11:12:40;5.68;;;3.30;;
73900;SDS011;62235;52.160;7.526;2023-07-09T11:15:11;6.07;;;3.50;;
73900;SDS011;62235;52.160;7.526;2023-07-09T11:17:40;4.32;;;3.30;;
73900;SDS011;62235;52.160;7.526;2023-07-09T11:20:16;4.55;;;2.95;;
73900;SDS011;62235;52.160;7.526;2023-07-09T11:22:50;5.25;;;3.00;;
73900;SDS011;62235;52.160;7.526;2023-07-09T11:28:37;6.50;;;3.00;;
73900;SDS011;62235;52.160;7.526;2023-07-09T11:31:07;5.05;;;2.83;;
73900;SDS011;62235;52.160;7.526;2023-07-09T11:33:34;6.57;;;3.60;;
73900;SDS011;62235;52.160;7.526;2023-07-09T11:36:11;4.35;;;2.42;;
73900;SDS011;62235;52.160;7.526;2023-07-09T11:38:42;3.80;;;2.67;;
73900;SDS011;62235;52.160;7.526;2023-07-09T11:44:05;4.43;;;2.53;;
73900;SDS011;62235;52.160;7.526;2023-07-09T11:46:43;4.88;;;2.90;;
73900;SDS011;62235;52.160;7.526;2023-07-09T11:49:15;7.40;;;2.80;;
73900;SDS011;62235;52.160;7.526;2023-07-09T11:51:42;4.93;;;2.80;;
73900;SDS011;62235;52.160;7.526;2023-07-09T11:54:10;6.45;;;3.05;;
73900;SDS011;62235;52.160;7.526;2023-07-09T11:56:38;4.93;;;2.90;;
73900;SDS011;62235;52.160;7.526;2023-07-09T11:59:03;4.57;;;2.75;;
73900;SDS011;62235;52.160;7.526;2023-07-09T12:01:33;6.30;;;2.60;;
73900;SDS011;62235;52.160;7.526;2023-07-09T12:04:01;4.93;;;3.05;;
73900;SDS011;62235;52.160;7.526;2023-07-09T12:06:28;4.10;;;2.92;;
73900;SDS011;62235;52.160;7.526;2023-07-09T12:08:56;5.22;;;2.78;;
73900;SDS011;62235;52.160;7.526;2023-07-09T12:14:01;5.72;;;2.92;;
73900;SDS011;62235;52.160;7.526;2023-07-09T12:16:35;6.13;;;2.90;;
73900;SDS011;62235;52.160;7.526;2023-07-09T12:19:02;5.50;;;3.35;;
73900;SDS011;62235;52.160;7.526;2023-07-09T12:21:37;6.13;;;2.80;;
73900;SDS011;62235;52.160;7.526;2023-07-09T12:24:03;9.20;;;3.10;;
73900;SDS011;62235;52.160;7.526;2023-07-09T12:29:08;4.83;;;3.03;;
73900;SDS011;62235;52.160;7.526;2023-07-09T12:31:34;6.00;;;3.20;;
73900;SDS011;62235;52.160;7.526;2023-07-09T12:33:59;4.80;;;2.77;;
73900;SDS011;62235;52.160;7.526;2023-07-09T12:36:25;6.25;;;3.25;;
73900;SDS011;62235;52.160;7.526;2023-07-09T12:38:52;5.13;;;2.97;;
73900;SDS011;62235;52.160;7.526;2023-07-09T12:41:24;5.45;;;3.38;;
73900;SDS011;62235;52.160;7.526;2023-07-09T12:43:52;6.15;;;3.00;;
73900;SDS011;62235;52.160;7.526;2023-07-09T12:46:18;5.05;;;3.13;;
73900;SDS011;62235;52.160;7.526;2023-07-09T12:48:44;5.55;;;3.03;;
73900;SDS011;62235;52.160;7.526;2023-07-09T12:51:13;5.68;;;3.10;;
73900;SDS011;62235;52.160;7.526;2023-07-09T12:53:49;6.32;;;3.22;;
73900;SDS011;62235;52.160;7.526;2023-07-09T12:56:15;5.40;;;3.33;;
73900;SDS011;62235;52.160;7.526;2023-07-09T12:58:42;6.90;;;3.03;;
73900;SDS011;62235;52.160;7.526;2023-07-09T13:01:14;6.65;;;3.60;;
73900;SDS011;62235;52.160;7.526;2023-07-09T13:03:40;5.72;;;3.05;;
73900;SDS011;62235;52.160;7.526;2023-07-09T13:06:06;5.07;;;3.13;;
73900;SDS011;62235;52.160;7.526;2023-07-09T13:08:54;9.73;;;3.33;;
73900;SDS011;62235;52.160;7.526;2023-07-09T13:11:21;4.65;;;2.90;;
73900;SDS011;62235;52.160;7.526;2023-07-09T13:14:01;4.63;;;3.20;;
73900;SDS011;62235;52.160;7.526;2023-07-09T13:16:29;7.72;;;3.35;;
73900;SDS011;62235;52.160;7.526;2023-07-09T13:18:54;4.60;;;3.08;;
73900;SDS011;62235;52.160;7.526;2023-07-09T13:21:20;6.90;;;3.08;;
73900;SDS011;62235;52.160;7.526;2023-07-09T13:23:46;6.60;;;4.13;;
73900;SDS011;62235;52.160;7.526;2023-07-09T13:26:12;4.38;;;3.15;;
73900;SDS011;62235;52.160;7.526;2023-07-09T13:28:38;5.93;;;3.10;;
73900;SDS011;62235;52.160;7.526;2023-07-09T13:33:42;6.70;;;3.42;;
73900;SDS011;62235;52.160;7.526;2023-07-09T13:36:09;6.38;;;3.17;;
73900;SDS011;62235;52.160;7.526;2023-07-09T13:38:35;4.57;;;3.20;;
73900;SDS011;62235;52.160;7.526;2023-07-09T13:41:01;7.13;;;3.45;;
73900;SDS011;62235;52.160;7.526;2023-07-09T13:43:36;5.95;;;3.38;;
73900;SDS011;62235;52.160;7.526;2023-07-09T13:46:03;7.15;;;3.25;;
73900;SDS011;62235;52.160;7.526;2023-07-09T13:48:33;5.13;;;3.03;;
73900;SDS011;62235;52.160;7.526;2023-07-09T13:50:59;6.25;;;3.38;;
73900;SDS011;62235;52.160;7.526;2023-07-09T13:53:27;5.93;;;3.05;;
73900;SDS011;62235;52.160;7.526;2023-07-09T13:55:55;5.82;;;3.50;;
73900;SDS011;62235;52.160;7.526;2023-07-09T13:58:21;5.45;;;3.25;;
73900;SDS011;62235;52.160;7.526;2023-07-09T14:00:49;7.47;;;3.30;;
73900;SDS011;62235;52.160;7.526;2023-07-09T14:03:17;7.22;;;3.35;;
73900;SDS011;62235;52.160;7.526;2023-07-09T14:05:45;6.22;;;3.20;;
73900;SDS011;62235;52.160;7.526;2023-07-09T14:08:11;4.35;;;2.75;;
73900;SDS011;62235;52.160;7.526;2023-07-09T14:10:37;4.50;;;2.97;;
73900;SDS011;62235;52.160;7.526;2023-07-09T14:13:02;6.20;;;3.10;;
73900;SDS011;62235;52.160;7.526;2023-07-09T14:15:28;5.43;;;2.83;;
73900;SDS011;62235;52.160;7.526;2023-07-09T14:17:53;5.82;;;3.15;;
73900;SDS011;62235;52.160;7.526;2023-07-09T14:20:20;4.40;;;2.92;;
73900;SDS011;62235;52.160;7.526;2023-07-09T14:22:47;5.50;;;3.30;;
73900;SDS011;62235;52.160;7.526;2023-07-09T14:25:23;6.05;;;3.13;;
73900;SDS011;62235;52.160;7.526;2023-07-09T14:27:50;6.55;;;3.30;;
73900;SDS011;62235;52.160;7.526;2023-07-09T14:30:17;5.90;;;3.30;;
73900;SDS011;62235;52.160;7.526;2023-07-09T14:32:44;4.88;;;3.30;;
73900;SDS011;62235;52.160;7.526;2023-07-09T14:35:13;6.65;;;3.30;;
73900;SDS011;62235;52.160;7.526;2023-07-09T14:37:43;6.13;;;3.20;;
73900;SDS011;62235;52.160;7.526;2023-07-09T14:40:09;5.55;;;3.22;;
73900;SDS011;62235;52.160;7.526;2023-07-09T14:42:36;4.75;;;3.15;;
73900;SDS011;62235;52.160;7.526;2023-07-09T14:45:02;5.40;;;3.30;;
73900;SDS011;62235;52.160;7.526;2023-07-09T14:47:28;4.88;;;3.05;;
73900;SDS011;62235;52.160;7.526;2023-07-09T14:49:54;5.83;;;3.30;;
73900;SDS011;62235;52.160;7.526;2023-07-09T14:52:20;5.45;;;3.10;;
73900;SDS011;62235;52.160;7.526;2023-07-09T14:54:48;7.07;;;3.28;;
73900;SDS011;62235;52.160;7.526;2023-07-09T14:57:23;5.00;;;3.30;;
73900;SDS011;62235;52.160;7.526;2023-07-09T14:59:51;6.00;;;3.45;;
73900;SDS011;62235;52.160;7.526;2023-07-09T15:04:46;5.32;;;3.42;;
73900;SDS011;62235;52.160;7.526;2023-07-09T15:07:11;6.30;;;3.63;;
73900;SDS011;62235;52.160;7.526;2023-07-09T15:09:37;4.68;;;3.35;;
73900;SDS011;62235;52.160;7.526;2023-07-09T15:12:03;5.07;;;3.30;;
73900;SDS011;62235;52.160;7.526;2023-07-09T15:14:29;9.30;;;3.53;;
73900;SDS011;62235;52.160;7.526;2023-07-09T15:16:54;5.40;;;3.85;;
73900;SDS011;62235;52.160;7.526;2023-07-09T15:19:20;6.25;;;3.15;;
73900;SDS011;62235;52.160;7.526;2023-07-09T15:21:47;6.97;;;3.88;;
73900;SDS011;62235;52.160;7.526;2023-07-09T15:24:22;6.85;;;3.90;;
73900;SDS011;62235;52.160;7.526;2023-07-09T15:26:52;7.65;;;4.15;;
73900;SDS011;62235;52.160;7.526;2023-07-09T15:29:19;5.07;;;3.83;;
73900;SDS011;62235;52.160;7.526;2023-07-09T15:31:45;5.63;;;3.88;;
73900;SDS011;62235;52.160;7.526;2023-07-09T15:34:10;9.17;;;3.87;;
73900;SDS011;62235;52.160;7.526;2023-07-09T15:36:36;6.43;;;4.00;;
73900;SDS011;62235;52.160;7.526;2023-07-09T15:39:01;5.55;;;3.75;;